Time;durP1;ratioP1;P1;durP2;ratioP2;P2;SDS_P1;SDS_P2;PMS_P1;PMS_P2;Temp;Humidity;BMP_temperature;BMP_pressure;BME280_temperature;BME280_humidity;BME280_pressure;Samples;Min_cycle;Max_cycle;Signal;HPM_P1;HPM_P2
2024/01/28 00:00:20;;;;;;;9.02;5.47;;;0.30;99.90;;;;;;4950268;29;20129;-58
2024/01/28 00:02:47;;;;;;;12.15;5.90;;;0.30;99.90;;;;;;4928343;28;20056;-58
2024/01/28 00:05:14;;;;;;;8.13;5.38;;;0.40;99.90;;;;;;4932209;29;20131;-55
2024/01/28 00:07:41;;;;;;;13.70;6.13;;;0.40;99.90;;;;;;4950765;29;20066;-57
2024/01/28 00:10:08;;;;;;;11.65;6.57;;;0.40;99.90;;;;;;4953560;29;20043;-55
2024/01/28 00:12:36;;;;;;;10.77;5.80;;;0.50;99.90;;;;;;4950549;29;20051;-54
2024/01/28 00:15:04;;;;;;;11.23;5.88;;;0.50;99.90;;;;;;4949877;28;20408;-54
2024/01/28 00:17:30;;;;;;;;;;;0.50;99.90;;;;;;4953726;29;20400;-58
2024/01/28 00:19:57;;;;;;;11.93;6.03;;;0.50;99.90;;;;;;4953291;28;19926;-58
2024/01/28 00:22:24;;;;;;;12.75;6.53;;;0.50;99.90;;;;;;4935733;29;20051;-59
2024/01/28 00:24:51;;;;;;;20.38;7.63;;;0.50;99.90;;;;;;4952303;28;20555;-56
2024/01/28 00:27:18;;;;;;;13.07;6.38;;;0.60;99.90;;;;;;4953463;29;20070;-57
2024/01/28 00:29:44;;;;;;;15.88;6.78;;;0.60;99.90;;;;;;4933720;29;20489;-54
2024/01/28 00:32:11;;;;;;;9.90;6.35;;;0.60;99.90;;;;;;4947706;29;20070;-55
2024/01/28 00:34:38;;;;;;;17.15;7.65;;;0.50;99.90;;;;;;4952405;28;20446;-58
2024/01/28 00:37:06;;;;;;;;;;;0.50;99.90;;;;;;4953969;29;20043;-55
2024/01/28 00:39:32;;;;;;;12.27;6.55;;;0.60;99.90;;;;;;4951878;28;20360;-57
2024/01/28 00:41:59;;;;;;;15.15;7.07;;;0.60;99.90;;;;;;4953337;29;20468;-53
2024/01/28 00:44:26;;;;;;;13.65;6.80;;;0.50;99.90;;;;;;4952673;28;20055;-54
2024/01/28 00:46:55;;;;;;;14.68;6.78;;;0.50;99.90;;;;;;4952996;29;20118;-54
2024/01/28 00:49:29;;;;;;;17.08;7.40;;;0.50;99.90;;;;;;4946365;29;20511;-56
2024/01/28 00:51:57;;;;;;;13.57;7.05;;;0.50;99.90;;;;;;4946838;29;20431;-54
2024/01/28 00:54:25;;;;;;;15.10;7.55;;;0.50;99.90;;;;;;4951329;28;20055;-54
2024/01/28 00:56:56;;;;;;;17.45;8.13;;;0.50;99.90;;;;;;4952295;29;20047;-58
2024/01/28 00:59:23;;;;;;;15.57;7.20;;;0.50;99.90;;;;;;4945469;29;20036;-58
2024/01/28 01:01:49;;;;;;;13.32;6.63;;;0.50;99.90;;;;;;4952704;29;20122;-59
2024/01/28 01:04:16;;;;;;;15.52;6.65;;;0.40;99.90;;;;;;4951139;28;20141;-55
2024/01/28 01:06:44;;;;;;;14.13;6.30;;;0.40;99.90;;;;;;4952410;29;20508;-58
2024/01/28 01:09:12;;;;;;;12.52;6.57;;;0.40;99.90;;;;;;4951421;29;20051;-56
2024/01/28 01:11:43;;;;;;;12.00;6.22;;;0.30;99.90;;;;;;4953345;28;20086;-53
2024/01/28 01:14:10;;;;;;;13.55;6.57;;;0.20;99.90;;;;;;4958484;28;20048;-56
2024/01/28 01:16:36;;;;;;;14.73;6.90;;;0.20;99.90;;;;;;4947728;29;20054;-55
2024/01/28 01:19:03;;;;;;;12.43;7.40;;;0.20;99.90;;;;;;4953298;29;20047;-55
2024/01/28 01:21:30;;;;;;;12.77;7.32;;;0.20;99.90;;;;;;4952426;29;20448;-54
2024/01/28 01:23:57;;;;;;;12.95;6.25;;;0.20;99.90;;;;;;4944109;28;20421;-53
2024/01/28 01:26:24;;;;;;;11.32;6.47;;;0.30;99.90;;;;;;4948396;29;20114;-55
2024/01/28 01:28:51;;;;;;;12.48;6.35;;;0.30;99.90;;;;;;4952573;29;20122;-56
2024/01/28 01:31:17;;;;;;;16.80;6.97;;;0.30;99.90;;;;;;4952667;28;20050;-53
2024/01/28 01:33:45;;;;;;;16.10;8.63;;;0.30;99.90;;;;;;4954486;28;20043;-54
2024/01/28 01:36:12;;;;;;;14.30;6.53;;;0.40;99.90;;;;;;4956200;29;20047;-57
2024/01/28 01:38:39;;;;;;;17.50;7.15;;;0.40;99.90;;;;;;4956411;29;20054;-55
2024/01/28 01:41:06;;;;;;;14.65;7.50;;;0.30;99.90;;;;;;4950622;29;20226;-56
2024/01/28 01:43:33;;;;;;;14.02;6.60;;;0.30;99.90;;;;;;4956016;28;20475;-56
2024/01/28 01:46:00;;;;;;;14.70;7.03;;;0.30;99.90;;;;;;4938604;29;20122;-54
2024/01/28 01:48:27;;;;;;;14.65;7.15;;;0.30;99.90;;;;;;4949256;29;20265;-57
2024/01/28 01:50:54;;;;;;;;;;;0.30;99.90;;;;;;4954795;29;20054;-57
2024/01/28 01:53:21;;;;;;;20.45;7.13;;;0.30;99.90;;;;;;4954927;29;20355;-54
2024/01/28 01:55:48;;;;;;;11.98;7.18;;;0.30;99.90;;;;;;4954619;29;20043;-57
2024/01/28 01:58:15;;;;;;;12.85;6.93;;;0.30;99.90;;;;;;4956180;29;20035;-58
2024/01/28 02:00:42;;;;;;;14.77;6.50;;;0.30;99.90;;;;;;4952141;29;20085;-58
2024/01/28 02:03:09;;;;;;;10.73;6.20;;;0.20;99.90;;;;;;4953149;28;20046;-56
2024/01/28 02:05:38;;;;;;;15.75;7.20;;;0.20;99.90;;;;;;4947229;29;20051;-55
2024/01/28 02:08:05;;;;;;;13.98;7.43;;;0.20;99.90;;;;;;4955652;29;20094;-59
2024/01/28 02:10:32;;;;;;;12.20;6.72;;;0.20;99.90;;;;;;4955242;29;20070;-55
2024/01/28 02:12:59;;;;;;;12.65;7.15;;;0.10;99.90;;;;;;4955620;28;20071;-57
2024/01/28 02:15:26;;;;;;;14.43;6.80;;;0.20;99.90;;;;;;4931781;29;20043;-58
2024/01/28 02:17:53;;;;;;;11.35;6.18;;;0.20;99.90;;;;;;4954387;29;20047;-55
2024/01/28 02:20:20;;;;;;;11.05;6.03;;;0.20;99.90;;;;;;4955798;29;20058;-57
2024/01/28 02:22:47;;;;;;;12.02;6.95;;;0.20;99.90;;;;;;4956008;28;20047;-56
2024/01/28 02:25:14;;;;;;;14.68;7.13;;;0.20;99.90;;;;;;4951352;29;20126;-58
2024/01/28 02:27:41;;;;;;;13.18;5.95;;;0.20;99.90;;;;;;4955636;29;20039;-57
2024/01/28 02:30:09;;;;;;;11.02;6.68;;;0.20;99.90;;;;;;4955860;29;20102;-55
2024/01/28 02:32:36;;;;;;;14.15;6.60;;;0.20;99.90;;;;;;4955678;29;20392;-58
2024/01/28 02:35:03;;;;;;;12.27;6.70;;;0.20;99.90;;;;;;4946152;29;20621;-54
2024/01/28 02:37:30;;;;;;;13.40;5.80;;;0.10;99.90;;;;;;4955324;29;20050;-53
2024/01/28 02:39:57;;;;;;;11.57;6.30;;;0.10;99.90;;;;;;4954744;29;20078;-57
2024/01/28 02:42:24;;;;;;;9.80;5.50;;;0.10;99.90;;;;;;4937754;29;20054;-56
2024/01/28 02:44:50;;;;;;;11.52;5.72;;;0.10;99.90;;;;;;4953732;28;20047;-58
2024/01/28 02:47:17;;;;;;;9.77;5.72;;;0.10;99.90;;;;;;4950202;29;20050;-55
2024/01/28 02:49:45;;;;;;;11.63;4.82;;;0.10;99.90;;;;;;4955424;29;20501;-56
2024/01/28 02:52:12;;;;;;;8.27;5.20;;;0.10;99.90;;;;;;4950124;29;20055;-57
2024/01/28 02:54:40;;;;;;;14.00;6.40;;;0.10;99.90;;;;;;4954799;28;20082;-57
2024/01/28 02:57:07;;;;;;;13.85;6.00;;;0.10;99.90;;;;;;4954032;29;20039;-56
2024/01/28 02:59:34;;;;;;;8.32;4.97;;;0.10;99.90;;;;;;4954748;29;20050;-56
2024/01/28 03:02:00;;;;;;;8.82;4.80;;;0.10;99.90;;;;;;4944848;29;20043;-54
2024/01/28 03:04:27;;;;;;;8.45;4.97;;;0.10;99.90;;;;;;4936555;29;20058;-58
2024/01/28 03:06:54;;;;;;;8.57;4.90;;;0.10;99.90;;;;;;4954625;29;20497;-55
2024/01/28 03:09:21;;;;;;;7.20;4.25;;;0.10;99.90;;;;;;4934180;29;20059;-54
2024/01/28 03:11:48;;;;;;;10.10;4.90;;;0.00;99.90;;;;;;4951610;29;20083;-59
2024/01/28 03:14:14;;;;;;;6.03;4.05;;;0.00;99.90;;;;;;4951836;28;20031;-54
2024/01/28 03:16:41;;;;;;;7.43;4.18;;;0.00;99.90;;;;;;4954958;28;20043;-56
2024/01/28 03:19:08;;;;;;;7.63;4.57;;;0.00;99.90;;;;;;4954546;29;20074;-53
2024/01/28 03:21:35;;;;;;;9.20;4.78;;;0.00;99.90;;;;;;4954646;29;20505;-56
2024/01/28 03:24:02;;;;;;;11.07;4.78;;;0.00;99.90;;;;;;4946265;28;20103;-59
2024/01/28 03:26:30;;;;;;;8.02;4.55;;;0.00;99.90;;;;;;4954486;29;20043;-54
2024/01/28 03:28:56;;;;;;;8.73;4.45;;;0.00;99.90;;;;;;4954537;29;20055;-54
2024/01/28 03:31:23;;;;;;;8.07;4.22;;;0.00;99.90;;;;;;4949058;29;20047;-53
2024/01/28 03:33:50;;;;;;;8.95;4.13;;;0.00;99.90;;;;;;4953572;28;20050;-56
2024/01/28 03:36:17;;;;;;;6.38;3.95;;;0.00;99.90;;;;;;4954178;29;20079;-55
2024/01/28 03:38:44;;;;;;;8.05;4.70;;;0.00;99.90;;;;;;4954356;29;20481;-53
2024/01/28 03:41:13;;;;;;;8.65;4.45;;;0.00;99.90;;;;;;4947593;29;20039;-55
2024/01/28 03:43:42;;;;;;;8.07;4.45;;;0.00;99.90;;;;;;4953226;28;20047;-54
2024/01/28 03:46:09;;;;;;;9.07;5.10;;;0.00;99.90;;;;;;4946096;29;20071;-54
2024/01/28 03:48:36;;;;;;;8.50;4.50;;;0.00;99.90;;;;;;4953898;29;20421;-57
2024/01/28 03:51:03;;;;;;;6.57;3.92;;;0.00;99.90;;;;;;4953108;29;20127;-58
2024/01/28 03:53:30;;;;;;;8.35;4.18;;;0.00;99.90;;;;;;4936593;29;20081;-59
2024/01/28 03:55:57;;;;;;;6.70;3.60;;;0.00;99.90;;;;;;4953144;28;20043;-54
2024/01/28 03:58:24;;;;;;;8.40;4.28;;;0.10;99.90;;;;;;4952560;29;20050;-54
2024/01/28 04:00:50;;;;;;;7.20;3.55;;;0.10;99.90;;;;;;4953834;29;20453;-55
2024/01/28 04:03:17;;;;;;;6.95;3.60;;;0.20;99.90;;;;;;4953683;28;20118;-55
2024/01/28 04:05:44;;;;;;;8.02;4.00;;;0.20;99.90;;;;;;4948358;29;20040;-55
2024/01/28 04:08:11;;;;;;;6.18;4.13;;;0.20;99.90;;;;;;4953924;29;20047;-57
2024/01/28 04:10:38;;;;;;;8.65;3.75;;;0.20;99.90;;;;;;4954141;29;20490;-55
2024/01/28 04:13:05;;;;;;;8.23;3.92;;;0.10;99.90;;;;;;4948071;29;20118;-58
2024/01/28 04:15:31;;;;;;;8.02;3.92;;;0.10;99.90;;;;;;4936313;29;20054;-55
2024/01/28 04:17:58;;;;;;;9.07;4.32;;;0.10;99.90;;;;;;4947867;29;20054;-54
2024/01/28 04:20:25;;;;;;;6.78;4.18;;;0.10;99.90;;;;;;4953886;29;20043;-55
2024/01/28 04:22:52;;;;;;;8.68;4.78;;;0.00;99.90;;;;;;4947836;28;20043;-53
2024/01/28 04:25:19;;;;;;;9.30;4.72;;;0.00;99.90;;;;;;4953220;29;20055;-55
2024/01/28 04:27:46;;;;;;;11.93;5.43;;;0.00;99.90;;;;;;4947124;29;20404;-56
2024/01/28 04:30:13;;;;;;;10.00;4.78;;;0.00;99.90;;;;;;4953662;29;20043;-56
2024/01/28 04:32:40;;;;;;;7.43;4.28;;;0.00;99.90;;;;;;4953232;28;20504;-58
2024/01/28 04:35:11;;;;;;;9.00;4.65;;;0.10;99.90;;;;;;4953008;29;20547;-54
2024/01/28 04:37:39;;;;;;;5.90;3.42;;;0.30;99.90;;;;;;4952194;29;20049;-57
2024/01/28 04:40:07;;;;;;;7.30;3.38;;;0.40;99.90;;;;;;4930086;29;20146;-55
2024/01/28 04:42:35;;;;;;;5.60;3.17;;;0.40;99.90;;;;;;4953186;29;20039;-58
2024/01/28 04:45:02;;;;;;;5.55;3.47;;;0.50;99.90;;;;;;4952510;28;20436;-54
2024/01/28 04:47:29;;;;;;;5.82;3.67;;;0.60;99.90;;;;;;4941992;29;20050;-55
2024/01/28 04:49:56;;;;;;;9.52;3.67;;;0.50;99.90;;;;;;4951301;29;20051;-54
2024/01/28 04:52:23;;;;;;;6.95;3.40;;;0.40;99.90;;;;;;4953118;29;20083;-56
2024/01/28 04:54:50;;;;;;;6.32;3.58;;;0.40;99.90;;;;;;4951077;28;20508;-54
2024/01/28 04:57:17;;;;;;;8.25;3.67;;;0.30;99.90;;;;;;4953143;29;20133;-54
2024/01/28 04:59:44;;;;;;;13.45;3.60;;;0.30;99.90;;;;;;4947447;29;20035;-53
2024/01/28 05:02:11;;;;;;;6.32;3.40;;;0.30;99.90;;;;;;4945479;29;20312;-53
2024/01/28 05:04:37;;;;;;;4.20;2.83;;;0.30;99.90;;;;;;4951485;28;20381;-58
2024/01/28 05:07:05;;;;;;;6.72;3.53;;;0.20;99.90;;;;;;4952446;28;23171;-54
2024/01/28 05:09:32;;;;;;;7.68;3.38;;;0.30;99.90;;;;;;4944618;29;20047;-54
2024/01/28 05:11:59;;;;;;;6.95;3.38;;;0.20;99.90;;;;;;4952998;29;20059;-56
2024/01/28 05:14:26;;;;;;;6.85;3.50;;;0.20;99.90;;;;;;4952675;28;20428;-55
2024/01/28 05:16:53;;;;;;;5.55;3.47;;;0.20;99.90;;;;;;4951549;29;20130;-54
2024/01/28 05:19:20;;;;;;;6.60;3.50;;;0.20;99.90;;;;;;4947727;29;20035;-55
2024/01/28 05:21:47;;;;;;;6.85;3.42;;;0.10;99.90;;;;;;4935206;29;20397;-57
2024/01/28 05:24:14;;;;;;;6.38;3.50;;;0.10;99.90;;;;;;4951901;28;20043;-56
2024/01/28 05:26:41;;;;;;;6.90;3.78;;;0.10;99.90;;;;;;4944439;29;20048;-54
2024/01/28 05:29:08;;;;;;;5.82;2.72;;;0.00;99.90;;;;;;4933715;29;20051;-54
2024/01/28 05:31:35;;;;;;;6.70;3.30;;;0.00;99.90;;;;;;4951742;29;20529;-57
2024/01/28 05:34:02;;;;;;;4.75;3.00;;;0.00;99.90;;;;;;4950943;28;20043;-57
2024/01/28 05:36:29;;;;;;;;;;;0.00;99.90;;;;;;4944098;29;20043;-57
2024/01/28 05:38:57;;;;;;;5.57;3.17;;;0.00;99.90;;;;;;4947324;29;19923;-56
2024/01/28 05:41:24;;;;;;;7.40;3.83;;;0.00;99.90;;;;;;4951105;29;20123;-57
2024/01/28 05:43:51;;;;;;;7.78;3.75;;;0.10;99.90;;;;;;4952193;28;20039;-54
2024/01/28 05:46:18;;;;;;;9.05;3.65;;;0.00;99.90;;;;;;4943227;29;20281;-54
2024/01/28 05:48:44;;;;;;;7.28;3.63;;;0.10;99.90;;;;;;4941717;29;20035;-56
2024/01/28 05:51:12;;;;;;;6.82;3.47;;;0.00;99.90;;;;;;4952652;29;20043;-55
2024/01/28 05:53:39;;;;;;;10.68;3.42;;;0.00;99.90;;;;;;4952469;28;20055;-53
2024/01/28 05:56:06;;;;;;;9.18;3.33;;;0.00;99.90;;;;;;4950311;29;20114;-55
2024/01/28 05:58:33;;;;;;;6.88;3.85;;;0.00;99.90;;;;;;4947509;29;20488;-55
2024/01/28 06:01:05;;;;;;;6.93;4.28;;;0.00;99.90;;;;;;4938068;29;20403;-59
2024/01/28 06:03:33;;;;;;;7.50;3.78;;;0.00;99.90;;;;;;4952444;28;20043;-53
2024/01/28 06:06:01;;;;;;;5.97;3.75;;;-0.10;99.90;;;;;;4951088;29;20043;-56
2024/01/28 06:08:29;;;;;;;7.22;4.15;;;0.00;99.90;;;;;;4951621;29;20083;-55
2024/01/28 06:10:56;;;;;;;9.70;4.63;;;0.00;99.90;;;;;;4943842;29;20047;-54
2024/01/28 06:13:23;;;;;;;6.82;4.07;;;0.00;99.90;;;;;;4952102;28;20591;-54
2024/01/28 06:15:53;;;;;;;7.72;4.30;;;-0.10;99.90;;;;;;4951760;29;20484;-56
2024/01/28 06:18:20;;;;;;;8.68;4.07;;;-0.10;99.90;;;;;;4950661;28;20198;-55
2024/01/28 06:20:47;;;;;;;9.20;4.55;;;-0.10;99.90;;;;;;4951349;29;20412;-58
2024/01/28 06:23:14;;;;;;;6.05;3.83;;;-0.20;99.90;;;;;;4955444;29;20047;-54
2024/01/28 06:25:41;;;;;;;5.97;3.42;;;-0.20;99.90;;;;;;4955496;29;20125;-58
2024/01/28 06:28:08;;;;;;;6.93;3.90;;;-0.20;99.90;;;;;;4948266;29;20049;-57
2024/01/28 06:30:35;;;;;;;;;;;-0.20;99.90;;;;;;4955702;29;20039;-55
2024/01/28 06:33:03;;;;;;;10.35;4.07;;;-0.20;99.90;;;;;;4951202;29;20295;-54
2024/01/28 06:35:31;;;;;;;8.55;4.32;;;-0.10;99.90;;;;;;4955513;29;20480;-57
2024/01/28 06:37:58;;;;;;;9.15;4.18;;;0.00;99.90;;;;;;4955328;29;20144;-56
2024/01/28 06:40:24;;;;;;;12.50;5.30;;;0.00;99.90;;;;;;4948105;29;20050;-55
2024/01/28 06:42:52;;;;;;;9.73;5.22;;;0.00;99.90;;;;;;4954713;28;20134;-54
2024/01/28 06:45:19;;;;;;;9.30;4.95;;;0.00;99.90;;;;;;4954973;29;20078;-54
2024/01/28 06:47:46;;;;;;;;;;;-0.10;99.90;;;;;;4952227;29;20056;-57
2024/01/28 06:50:13;;;;;;;15.70;5.85;;;0.00;99.90;;;;;;4947975;29;19922;-57
2024/01/28 06:52:42;;;;;;;10.93;5.80;;;0.00;99.90;;;;;;4955120;29;20043;-57
2024/01/28 06:55:09;;;;;;;13.10;6.22;;;-0.10;99.90;;;;;;4953040;29;20055;-57
2024/01/28 06:57:36;;;;;;;8.77;5.03;;;-0.10;99.90;;;;;;4954926;29;20047;-54
2024/01/28 07:00:04;;;;;;;;;;;-0.10;99.90;;;;;;4952121;28;20547;-56
2024/01/28 07:02:32;;;;;;;9.02;4.80;;;-0.10;99.90;;;;;;4952891;29;19923;-56
2024/01/28 07:04:59;;;;;;;10.13;4.78;;;-0.20;99.90;;;;;;4953200;28;20050;-56
2024/01/28 07:07:26;;;;;;;8.60;4.35;;;-0.10;99.90;;;;;;4948439;29;20501;-56
2024/01/28 07:09:53;;;;;;;7.97;3.80;;;-0.10;99.90;;;;;;4954740;29;20388;-59
2024/01/28 07:12:22;;;;;;;8.90;4.15;;;-0.10;99.90;;;;;;4954612;29;20054;-56
2024/01/28 07:14:48;;;;;;;9.23;4.63;;;-0.10;99.90;;;;;;4948665;29;20048;-54
2024/01/28 07:17:15;;;;;;;12.85;5.60;;;-0.10;99.90;;;;;;4950768;29;20039;-58
2024/01/28 07:19:42;;;;;;;14.90;7.70;;;0.00;99.90;;;;;;4954445;29;20039;-55
2024/01/28 07:22:11;;;;;;;8.90;4.90;;;-0.10;99.90;;;;;;4954129;29;20424;-53
2024/01/28 07:24:38;;;;;;;11.63;4.90;;;-0.10;99.90;;;;;;4954352;28;20043;-55
2024/01/28 07:27:05;;;;;;;10.27;5.03;;;-0.10;99.90;;;;;;4946213;29;20050;-55
2024/01/28 07:29:32;;;;;;;13.57;6.03;;;-0.10;99.90;;;;;;4954025;28;20514;-56
2024/01/28 07:31:59;;;;;;;25.92;9.00;;;-0.10;99.90;;;;;;4954034;29;20138;-54
2024/01/28 07:34:26;;;;;;;14.15;6.75;;;-0.10;99.90;;;;;;4946588;28;20535;-58
2024/01/28 07:36:56;;;;;;;12.75;6.72;;;-0.10;99.90;;;;;;4954334;29;20058;-56
2024/01/28 07:39:24;;;;;;;10.45;6.00;;;-0.10;99.90;;;;;;4952103;29;20094;-58
2024/01/28 07:41:50;;;;;;;15.30;6.80;;;-0.10;99.90;;;;;;4954460;29;20497;-57
2024/01/28 07:44:17;;;;;;;11.85;6.07;;;-0.10;99.90;;;;;;4953694;28;20382;-55
2024/01/28 07:46:45;;;;;;;10.40;5.53;;;0.00;99.90;;;;;;4954447;29;20039;-54
2024/01/28 07:49:12;;;;;;;16.92;8.55;;;0.00;99.90;;;;;;4951098;29;20043;-55
2024/01/28 07:51:39;;;;;;;11.93;5.93;;;0.00;99.90;;;;;;4954382;29;20035;-54
2024/01/28 07:54:06;;;;;;;11.90;5.93;;;0.00;99.90;;;;;;4945629;29;20071;-58
2024/01/28 07:56:32;;;;;;;9.50;5.57;;;0.00;99.90;;;;;;4954062;29;20071;-54
2024/01/28 07:58:59;;;;;;;9.25;5.43;;;0.00;99.90;;;;;;4953698;29;20126;-57
2024/01/28 08:01:30;;;;;;;8.30;4.70;;;0.00;99.90;;;;;;4946565;29;20118;-54
2024/01/28 08:03:57;;;;;;;7.97;4.70;;;0.00;99.90;;;;;;4952441;28;20043;-55
2024/01/28 08:06:24;;;;;;;7.15;4.10;;;0.10;99.90;;;;;;4931619;29;20547;-57
2024/01/28 08:08:52;;;;;;;9.63;4.13;;;0.10;99.90;;;;;;4949350;29;20043;-54
2024/01/28 08:11:19;;;;;;;9.05;4.53;;;0.10;99.90;;;;;;4952410;29;20050;-54
2024/01/28 08:13:48;;;;;;;9.07;4.63;;;0.10;99.90;;;;;;4952088;28;20062;-57
2024/01/28 08:16:15;;;;;;;9.02;4.47;;;0.10;99.90;;;;;;4939094;29;20059;-55
2024/01/28 08:18:42;;;;;;;10.15;5.13;;;0.10;99.90;;;;;;4954267;29;20047;-56
2024/01/28 08:21:09;;;;;;;11.27;5.50;;;0.10;99.90;;;;;;4954245;29;20058;-54
2024/01/28 08:23:35;;;;;;;10.57;5.68;;;0.10;99.90;;;;;;4952157;28;20045;-58
2024/01/28 08:26:02;;;;;;;11.30;5.93;;;0.10;99.90;;;;;;4951668;29;20086;-56
2024/01/28 08:28:29;;;;;;;8.75;4.78;;;0.30;99.90;;;;;;4945923;29;20102;-54
2024/01/28 08:30:56;;;;;;;12.80;4.72;;;0.30;99.90;;;;;;4953390;29;20053;-55
2024/01/28 08:33:23;;;;;;;9.30;5.25;;;0.40;99.90;;;;;;4953903;28;20043;-57
2024/01/28 08:35:50;;;;;;;10.73;4.63;;;0.60;99.90;;;;;;4952463;29;20049;-54
2024/01/28 08:38:16;;;;;;;8.70;4.38;;;0.80;99.90;;;;;;4953921;29;20043;-55
2024/01/28 08:40:43;;;;;;;6.32;3.67;;;0.80;99.90;;;;;;4953774;28;20046;-56
2024/01/28 08:43:10;;;;;;;13.05;6.45;;;1.00;99.90;;;;;;4948497;29;20044;-55
2024/01/28 08:45:37;;;;;;;8.23;5.43;;;1.00;99.90;;;;;;4953402;29;20055;-55
2024/01/28 08:48:04;;;;;;;10.18;5.38;;;1.10;99.90;;;;;;4953580;29;20046;-53
2024/01/28 08:50:31;;;;;;;;;;;1.20;99.90;;;;;;4954171;29;20050;-58
2024/01/28 08:52:58;;;;;;;7.38;4.40;;;1.20;99.90;;;;;;4945262;29;19929;-57
2024/01/28 08:55:25;;;;;;;8.73;4.82;;;1.30;99.90;;;;;;4952370;29;20472;-54
2024/01/28 08:57:51;;;;;;;6.68;4.20;;;1.40;99.90;;;;;;4952854;29;20059;-57
2024/01/28 09:00:19;;;;;;;7.80;4.07;;;1.50;99.90;;;;;;4951037;29;20066;-56
2024/01/28 09:02:46;;;;;;;7.05;3.45;;;1.60;99.90;;;;;;4948854;28;20480;-54
2024/01/28 09:05:13;;;;;;;7.70;4.20;;;1.70;99.90;;;;;;4952979;29;20063;-55
2024/01/28 09:07:41;;;;;;;7.43;4.30;;;1.80;99.90;;;;;;4953575;29;20436;-54
2024/01/28 09:10:09;;;;;;;5.88;3.67;;;1.90;99.90;;;;;;4946202;29;20063;-56
2024/01/28 09:12:35;;;;;;;11.38;4.93;;;1.90;99.90;;;;;;4953460;29;20046;-53
2024/01/28 09:15:03;;;;;;;7.68;4.10;;;2.00;99.90;;;;;;4952294;28;20070;-57
2024/01/28 09:17:29;;;;;;;9.00;4.18;;;2.00;99.90;;;;;;4936206;29;20138;-56
2024/01/28 09:19:56;;;;;;;8.38;3.75;;;2.10;99.90;;;;;;4949796;29;20047;-57
2024/01/28 09:22:23;;;;;;;7.57;4.70;;;2.10;99.90;;;;;;4948552;29;20046;-54
2024/01/28 09:24:50;;;;;;;4.43;2.35;;;2.10;99.90;;;;;;4952995;28;20373;-59
2024/01/28 09:27:17;;;;;;;8.70;5.15;;;2.10;99.90;;;;;;4952758;29;20083;-55
2024/01/28 09:29:44;;;;;;;;;;;2.10;99.90;;;;;;4932636;29;20069;-56
2024/01/28 09:32:11;;;;;;;33.22;9.45;;;2.20;99.90;;;;;;4951428;29;20410;-59
2024/01/28 09:34:38;;;;;;;16.33;6.43;;;2.40;99.90;;;;;;4953001;28;20056;-55
2024/01/28 09:37:07;;;;;;;12.20;5.40;;;2.50;99.90;;;;;;4952973;29;20044;-56
2024/01/28 09:39:34;;;;;;;6.45;3.47;;;2.60;99.90;;;;;;4947798;29;20468;-57
2024/01/28 09:42:19;;;;;;;6.28;3.15;;;2.70;99.90;;;;;;4953006;29;20126;-56
2024/01/28 09:44:48;;;;;;;5.10;3.00;;;2.70;99.90;;;;;;4946914;28;20038;-55
2024/01/28 09:47:18;;;;;;;4.63;2.70;;;2.90;99.90;;;;;;4944912;29;20137;-55
2024/01/28 09:49:46;;;;;;;7.35;2.90;;;3.00;99.90;;;;;;4953168;29;20039;-53
2024/01/28 09:52:13;;;;;;;4.70;2.53;;;3.20;99.90;;;;;;4952646;28;20141;-57
2024/01/28 09:54:47;;;;;;;5.05;2.50;;;3.30;99.90;;;;;;4955618;28;20044;-55
2024/01/28 09:57:15;;;;;;;4.13;2.40;;;3.50;99.90;;;;;;4955364;29;20035;-57
2024/01/28 09:59:43;;;;;;;5.03;2.65;;;3.60;99.90;;;;;;4956512;29;20076;-56
2024/01/28 10:02:12;;;;;;;4.28;2.28;;;3.80;99.90;;;;;;4947858;29;20046;-57
2024/01/28 10:04:40;;;;;;;4.47;2.63;;;4.00;99.90;;;;;;4956191;28;20031;-59
2024/01/28 10:07:09;;;;;;;6.03;3.47;;;4.10;99.90;;;;;;4956510;29;20051;-55
2024/01/28 10:09:37;;;;;;;5.63;3.13;;;4.30;99.90;;;;;;4956621;29;20054;-56
2024/01/28 10:12:04;;;;;;;;;;;4.40;99.90;;;;;;4955192;29;20461;-54
2024/01/28 10:14:30;;;;;;;6.05;1.83;;;4.40;99.90;;;;;;4955996;28;19937;-55
2024/01/28 10:16:57;;;;;;;2.78;1.80;;;4.50;99.90;;;;;;4956064;29;20043;-56
2024/01/28 10:19:25;;;;;;;2.33;1.70;;;4.50;99.90;;;;;;4939359;29;20043;-53
2024/01/28 10:21:52;;;;;;;4.28;2.10;;;4.60;99.90;;;;;;4956492;29;20054;-57
2024/01/28 10:24:19;;;;;;;;;;;4.60;99.90;;;;;;4956321;28;20496;-56
2024/01/28 10:26:46;;;;;;;5.93;2.38;;;4.50;99.90;;;;;;4949118;29;19922;-56
2024/01/28 10:29:14;;;;;;;4.20;2.00;;;4.40;99.90;;;;;;4956264;29;20047;-53
2024/01/28 10:31:41;;;;;;;2.80;1.70;;;4.30;99.90;;;;;;4955036;29;20106;-54
2024/01/28 10:34:09;;;;;;;3.20;1.88;;;4.30;99.90;;;;;;4955444;28;20047;-56
2024/01/28 10:36:39;;;;;;;3.28;1.58;;;4.30;99.90;;;;;;4951584;29;20058;-55
2024/01/28 10:39:09;;;;;;;3.67;1.30;;;4.50;99.90;;;;;;4948635;29;20035;-59
2024/01/28 10:41:44;;;;;;;4.25;1.70;;;4.60;99.90;;;;;;4956052;29;20440;-54
2024/01/28 10:44:13;;;;;;;2.42;1.25;;;4.80;99.90;;;;;;4951362;28;20051;-57
2024/01/28 10:46:44;;;;;;;2.55;1.65;;;4.90;99.90;;;;;;4956022;29;20062;-57
2024/01/28 10:49:12;;;;;;;2.08;1.33;;;4.90;99.90;;;;;;4956059;29;20107;-57
2024/01/28 10:51:39;;;;;;;2.08;1.30;;;5.00;99.90;;;;;;4955797;29;20051;-55
2024/01/28 10:54:08;;;;;;;5.15;1.67;;;5.20;99.90;;;;;;4949967;28;20058;-56
2024/01/28 10:56:39;;;;;;;3.67;2.17;;;5.20;99.90;;;;;;4955502;29;20408;-54
2024/01/28 10:59:07;;;;;;;3.53;1.83;;;5.20;99.90;;;;;;4955738;29;20039;-57
2024/01/28 11:01:34;;;;;;;3.88;1.60;;;5.30;99.90;;;;;;4948007;29;20038;-55
2024/01/28 11:04:03;;;;;;;3.85;1.33;;;5.50;99.90;;;;;;4955115;28;20392;-57
2024/01/28 11:06:30;;;;;;;1.52;1.33;;;5.50;99.90;;;;;;4946376;29;20045;-56
2024/01/28 11:08:58;;;;;;;1.88;1.30;;;5.60;99.90;;;;;;4954786;29;20051;-59
2024/01/28 11:11:26;;;;;;;2.97;1.40;;;5.70;99.90;;;;;;4954048;29;20070;-55
2024/01/28 11:13:55;;;;;;;2.35;1.60;;;5.80;99.90;;;;;;4951228;28;20126;-55
2024/01/28 11:16:22;;;;;;;5.45;1.85;;;5.70;99.90;;;;;;4954414;29;20496;-58
2024/01/28 11:19:07;;;;;;;2.15;1.60;;;5.80;99.90;;;;;;4953746;29;20050;-55
2024/01/28 11:21:35;;;;;;;3.55;1.20;;;5.90;99.90;;;;;;4955474;29;20050;-56
2024/01/28 11:24:07;;;;;;;2.35;1.48;;;6.00;99.90;;;;;;4954815;28;20130;-57
2024/01/28 11:26:36;;;;;;;3.13;1.60;;;6.00;99.90;;;;;;4949081;29;20063;-57
2024/01/28 11:29:08;;;;;;;3.33;1.65;;;6.10;99.90;;;;;;4955217;29;20116;-57
2024/01/28 11:31:38;;;;;;;;;;;6.10;99.90;;;;;;4955767;29;20045;-55
2024/01/28 11:34:12;;;;;;;4.53;1.50;;;6.10;99.90;;;;;;4952410;28;20304;-54
2024/01/28 11:36:43;;;;;;;4.30;1.70;;;6.20;99.90;;;;;;4954951;29;20103;-57
2024/01/28 11:39:15;;;;;;;3.67;1.50;;;6.20;99.90;;;;;;4954853;29;20062;-54
2024/01/28 11:41:43;;;;;;;7.32;3.38;;;6.10;99.90;;;;;;4949909;29;20378;-56
2024/01/28 11:44:10;;;;;;;3.53;1.88;;;6.00;99.90;;;;;;4951231;28;20462;-53
2024/01/28 11:46:38;;;;;;;1.65;0.90;;;6.10;99.90;;;;;;4954931;29;20035;-53
2024/01/28 11:49:07;;;;;;;2.47;1.48;;;6.20;99.90;;;;;;4954316;29;20523;-56
2024/01/28 11:51:34;;;;;;;1.58;1.20;;;6.20;99.90;;;;;;4954971;29;20038;-55
2024/01/28 11:54:06;;;;;;;1.63;1.13;;;6.40;99.90;;;;;;4953489;28;20057;-58
2024/01/28 11:56:34;;;;;;;4.22;1.20;;;6.40;99.90;;;;;;4954533;29;20047;-56
2024/01/28 11:59:02;;;;;;;2.20;1.05;;;6.50;99.90;;;;;;4954687;29;20125;-59
2024/01/28 12:01:29;;;;;;;1.85;1.15;;;6.70;99.90;;;;;;4951153;29;20043;-57
2024/01/28 12:03:56;;;;;;;1.77;1.27;;;6.70;99.90;;;;;;4952105;28;20444;-58
2024/01/28 12:06:27;;;;;;;2.97;1.55;;;6.70;99.90;;;;;;4954099;29;20074;-58
2024/01/28 12:08:56;;;;;;;3.05;1.40;;;6.70;99.90;;;;;;4954410;29;20085;-57
2024/01/28 12:11:33;;;;;;;1.80;0.93;;;6.80;99.90;;;;;;4936902;29;20055;-57
2024/01/28 12:14:01;;;;;;;2.10;1.20;;;6.80;99.90;;;;;;4949156;29;20054;-56
2024/01/28 12:16:31;;;;;;;3.00;1.23;;;6.80;99.90;;;;;;4953989;28;20130;-58
2024/01/28 12:18:58;;;;;;;2.50;0.90;;;7.00;99.90;;;;;;4954264;28;20074;-56
2024/01/28 12:21:27;;;;;;;1.58;0.85;;;7.00;99.90;;;;;;4948614;29;20039;-57
2024/01/28 12:23:58;;;;;;;5.25;1.60;;;7.00;99.90;;;;;;4953424;28;20118;-56
2024/01/28 12:26:26;;;;;;;3.88;2.58;;;7.10;99.90;;;;;;4947978;29;20118;-58
2024/01/28 12:28:53;;;;;;;2.95;1.40;;;7.10;99.90;;;;;;4954130;29;20098;-56
2024/01/28 12:31:20;;;;;;;5.50;1.88;;;7.10;99.90;;;;;;4953669;29;20047;-54
2024/01/28 12:33:48;;;;;;;5.82;1.60;;;7.20;99.90;;;;;;4953635;28;20049;-55
2024/01/28 12:36:16;;;;;;;3.33;1.20;;;7.30;99.90;;;;;;4952107;29;20515;-57
2024/01/28 12:38:43;;;;;;;5.60;1.73;;;7.20;99.90;;;;;;4954253;28;20043;-57
2024/01/28 12:41:10;;;;;;;3.00;1.23;;;7.20;99.90;;;;;;4950315;29;20043;-55
2024/01/28 12:43:38;;;;;;;2.80;1.40;;;7.20;99.90;;;;;;4949619;29;20046;-58
2024/01/28 12:46:04;;;;;;;;;;;7.30;99.90;;;;;;4949824;28;20044;-53
2024/01/28 12:48:32;;;;;;;1.42;0.60;;;7.20;99.90;;;;;;4950525;29;19922;-57
2024/01/28 12:50:59;;;;;;;;;;;7.20;99.90;;;;;;4952391;29;20047;-56
2024/01/28 12:53:26;;;;;;;2.28;0.63;;;7.40;99.90;;;;;;4948219;28;19922;-55
2024/01/28 12:55:52;;;;;;;2.67;0.65;;;7.40;99.90;;;;;;4947899;28;20070;-57